createdAt,value
2023-05-11T00:00:45.076Z,2.33
2023-05-11T00:03:18.187Z,2.47
2023-05-11T00:05:49.965Z,2.30
2023-05-11T00:08:21.563Z,1.90
2023-05-11T00:10:53.229Z,2.20
2023-05-11T00:13:25.221Z,2.22
2023-05-11T00:15:56.961Z,3.10
2023-05-11T00:18:29.982Z,3.00
2023-05-11T00:21:01.584Z,2.80
2023-05-11T00:23:33.194Z,2.22
2023-05-11T00:26:04.844Z,2.58
2023-05-11T00:28:36.435Z,2.53
2023-05-11T00:31:08.136Z,2.25
2023-05-11T00:33:41.082Z,2.42
2023-05-11T00:36:12.653Z,2.90
2023-05-11T00:38:44.257Z,2.78
2023-05-11T00:41:15.949Z,2.60
2023-05-11T00:43:47.542Z,2.40
2023-05-11T00:46:19.206Z,2.40
2023-05-11T00:48:52.172Z,2.53
2023-05-11T00:51:23.790Z,2.65
2023-05-11T00:53:55.391Z,2.78
2023-05-11T00:56:27.017Z,2.80
2023-05-11T00:58:58.601Z,2.83
2023-05-11T01:01:30.189Z,2.83
2023-05-11T01:04:03.157Z,3.10
2023-05-11T01:06:38.016Z,2.97
2023-05-11T01:09:12.089Z,2.00
2023-05-11T01:11:46.304Z,2.35
2023-05-11T01:14:20.566Z,2.05
2023-05-11T01:16:55.142Z,2.20
2023-05-11T01:19:38.171Z,2.50
2023-05-11T01:22:15.773Z,2.50
2023-05-11T01:24:54.470Z,2.23
2023-05-11T01:27:41.283Z,2.90
2023-05-11T01:30:30.011Z,2.63
2023-05-11T01:33:05.655Z,2.58
2023-05-11T01:35:38.932Z,2.85
2023-05-11T01:38:11.418Z,2.80
2023-05-11T01:40:42.997Z,3.37
2023-05-11T01:43:15.696Z,3.03
2023-05-11T01:45:51.245Z,3.53
2023-05-11T01:48:24.426Z,3.27
2023-05-11T01:50:56.310Z,3.47
2023-05-11T01:53:28.207Z,4.10
2023-05-11T01:55:59.801Z,4.37
2023-05-11T01:58:31.382Z,3.88
2023-05-11T02:01:04.407Z,4.10
2023-05-11T02:03:36.602Z,4.20
2023-05-11T02:06:08.590Z,4.97
2023-05-11T02:08:40.179Z,4.40
2023-05-11T02:11:11.814Z,4.87
2023-05-11T02:13:44.881Z,5.60
2023-05-11T02:16:17.857Z,5.60
2023-05-11T02:18:49.501Z,5.77
2023-05-11T02:21:21.166Z,5.63
2023-05-11T02:23:52.767Z,5.40
2023-05-11T02:26:24.492Z,6.50
2023-05-11T02:28:56.145Z,5.67
2023-05-11T02:31:29.806Z,6.43
2023-05-11T02:34:04.349Z,6.20
2023-05-11T02:36:37.217Z,7.13
2023-05-11T02:39:09.427Z,7.60
2023-05-11T02:41:42.557Z,7.30
2023-05-11T02:44:15.426Z,6.93
2023-05-11T02:46:48.689Z,7.73
2023-05-11T02:49:21.970Z,9.10
2023-05-11T02:51:53.565Z,9.20
2023-05-11T02:54:25.194Z,9.33
2023-05-11T02:56:56.938Z,8.57
2023-05-11T02:59:28.626Z,7.70
2023-05-11T03:02:01.739Z,7.10
2023-05-11T03:04:33.610Z,7.77
2023-05-11T03:07:05.239Z,7.00
2023-05-11T03:09:36.879Z,6.93
2023-05-11T03:12:08.496Z,6.97
2023-05-11T03:14:40.089Z,6.47
2023-05-11T03:17:13.344Z,7.40
2023-05-11T03:19:44.941Z,7.47
2023-05-11T03:22:16.596Z,8.23
2023-05-11T03:24:48.359Z,8.25
2023-05-11T03:27:20.024Z,7.70
2023-05-11T03:29:51.648Z,7.60
2023-05-11T03:32:24.771Z,8.33
2023-05-11T03:34:56.470Z,8.93
2023-05-11T03:37:28.280Z,9.13
2023-05-11T03:39:59.978Z,8.97
2023-05-11T03:42:31.575Z,8.27
2023-05-11T03:45:03.489Z,10.47
2023-05-11T03:47:36.512Z,9.40
2023-05-11T03:50:08.717Z,10.37
2023-05-11T03:52:41.020Z,9.63
2023-05-11T03:55:12.642Z,9.83
2023-05-11T03:57:44.256Z,10.03
2023-05-11T04:00:16.731Z,10.00
2023-05-11T04:02:50.009Z,10.00
2023-05-11T04:05:21.667Z,10.17
2023-05-11T04:07:53.267Z,11.60
2023-05-11T04:10:24.864Z,11.47
2023-05-11T04:12:56.497Z,10.50
2023-05-11T04:15:28.120Z,10.10
2023-05-11T04:18:01.169Z,11.63
2023-05-11T04:20:32.822Z,11.82
2023-05-11T04:23:04.429Z,11.25
2023-05-11T04:25:36.054Z,12.40
2023-05-11T04:28:07.675Z,10.53
2023-05-11T04:30:39.337Z,10.75
2023-05-11T04:33:12.265Z,10.97
2023-05-11T04:35:43.867Z,11.00
2023-05-11T04:38:15.467Z,11.07
2023-05-11T04:40:47.114Z,10.73
2023-05-11T04:43:18.763Z,9.88
2023-05-11T04:45:50.424Z,9.07
2023-05-11T04:48:23.361Z,10.37
2023-05-11T04:50:55.180Z,10.17
2023-05-11T04:53:26.895Z,8.98
2023-05-11T04:55:58.539Z,10.05
2023-05-11T04:58:30.165Z,10.60
2023-05-11T05:01:01.799Z,10.13
2023-05-11T05:03:34.850Z,10.37
2023-05-11T05:06:06.733Z,9.73
2023-05-11T05:08:38.343Z,9.75
2023-05-11T05:11:09.918Z,9.77
2023-05-11T05:13:41.560Z,10.30
2023-05-11T05:16:13.190Z,11.17
2023-05-11T05:18:46.225Z,10.48
2023-05-11T05:21:17.850Z,11.15
2023-05-11T05:23:49.460Z,12.07
2023-05-11T05:26:21.138Z,11.57
2023-05-11T05:28:52.755Z,13.18
2023-05-11T05:31:24.654Z,12.43
2023-05-11T05:33:57.732Z,14.52
2023-05-11T05:36:29.372Z,15.25
2023-05-11T05:39:00.961Z,13.40
2023-05-11T05:41:32.606Z,14.32
2023-05-11T05:44:04.473Z,11.95
2023-05-11T05:46:36.172Z,13.77
2023-05-11T05:49:09.151Z,15.73
2023-05-11T05:51:40.788Z,14.68
2023-05-11T05:54:12.413Z,13.40
2023-05-11T05:56:44.015Z,16.45
2023-05-11T05:59:15.644Z,16.58
2023-05-11T06:01:47.525Z,17.05
2023-05-11T06:04:20.594Z,15.40
2023-05-11T06:06:52.271Z,16.08
2023-05-11T06:09:23.886Z,16.63
2023-05-11T06:11:55.495Z,16.38
2023-05-11T06:14:27.122Z,14.48
2023-05-11T06:16:58.717Z,15.80
2023-05-11T06:19:31.679Z,17.05
2023-05-11T06:22:05.865Z,16.60
2023-05-11T06:24:38.393Z,16.67
2023-05-11T06:27:10.000Z,17.10
2023-05-11T06:29:41.616Z,15.90
2023-05-11T06:32:13.234Z,15.65
2023-05-11T06:34:46.223Z,14.13
2023-05-11T06:37:17.828Z,15.35
2023-05-11T06:39:49.492Z,15.85
2023-05-11T06:42:21.182Z,15.35
2023-05-11T06:44:52.866Z,15.02
2023-05-11T06:47:24.511Z,13.98
2023-05-11T06:49:57.524Z,14.15
2023-05-11T06:52:29.166Z,14.82
2023-05-11T06:55:00.774Z,13.82
2023-05-11T06:57:32.385Z,13.65
2023-05-11T07:00:04.996Z,11.48
2023-05-11T07:02:36.719Z,13.25
2023-05-11T07:05:09.988Z,12.70
2023-05-11T07:07:41.607Z,12.35
2023-05-11T07:10:13.229Z,13.40
2023-05-11T07:12:44.869Z,11.82
2023-05-11T07:15:16.538Z,13.05
2023-05-11T07:17:48.298Z,12.93
2023-05-11T07:20:21.496Z,11.73
2023-05-11T07:22:56.512Z,13.25
2023-05-11T07:25:28.191Z,13.02
2023-05-11T07:27:59.856Z,12.98
2023-05-11T07:30:31.582Z,12.90
2023-05-11T07:33:03.531Z,12.55
2023-05-11T07:35:36.964Z,13.13
2023-05-11T07:38:08.598Z,12.07
2023-05-11T07:40:40.245Z,12.38
2023-05-11T07:43:11.861Z,14.18
2023-05-11T07:45:43.473Z,12.18
2023-05-11T07:48:15.153Z,11.57
2023-05-11T07:50:48.084Z,12.63
2023-05-11T07:53:19.711Z,12.73
2023-05-11T07:55:51.315Z,12.63
2023-05-11T07:58:23.032Z,12.13
2023-05-11T08:00:54.666Z,12.82
2023-05-11T08:03:26.415Z,11.32
2023-05-11T08:05:59.484Z,12.13
2023-05-11T08:08:31.143Z,11.57
2023-05-11T08:11:02.781Z,10.80
2023-05-11T08:13:34.401Z,9.38
2023-05-11T08:16:07.055Z,9.48
2023-05-11T08:18:39.740Z,10.38
2023-05-11T08:21:12.735Z,9.43
2023-05-11T08:23:45.213Z,9.25
2023-05-11T08:26:17.019Z,8.18
2023-05-11T08:28:48.690Z,8.57
2023-05-11T08:31:20.350Z,9.10
2023-05-11T08:33:52.039Z,8.52
2023-05-11T08:36:25.408Z,8.48
2023-05-11T08:38:59.027Z,8.43
2023-05-11T08:41:31.736Z,7.68
2023-05-11T08:44:03.560Z,8.02
2023-05-11T08:46:35.710Z,7.15
2023-05-11T08:49:07.331Z,7.40
2023-05-11T08:51:40.276Z,7.90
2023-05-11T08:54:12.271Z,7.32
2023-05-11T08:56:43.881Z,8.13
2023-05-11T08:59:15.516Z,7.68
2023-05-11T09:01:47.366Z,8.45
2023-05-11T09:04:19.395Z,8.05
2023-05-11T09:06:52.541Z,7.95
2023-05-11T09:09:24.141Z,7.80
2023-05-11T09:11:55.762Z,8.07
2023-05-11T09:14:27.735Z,8.23
2023-05-11T09:16:59.534Z,8.20
2023-05-11T09:19:31.162Z,7.65
2023-05-11T09:22:04.719Z,6.28
2023-05-11T09:24:36.638Z,7.60
2023-05-11T09:27:08.391Z,7.07
2023-05-11T09:29:40.017Z,7.40
2023-05-11T09:32:11.658Z,7.65
2023-05-11T09:34:43.528Z,7.30
2023-05-11T09:37:19.496Z,7.90
2023-05-11T09:42:30.359Z,7.97
2023-05-11T09:45:02.012Z,7.50
2023-05-11T09:47:38.783Z,6.13
2023-05-11T09:50:16.251Z,6.53
2023-05-11T09:52:52.222Z,6.60
2023-05-11T09:55:24.204Z,6.57
2023-05-11T09:57:56.444Z,6.55
2023-05-11T10:00:28.050Z,7.10
2023-05-11T10:03:00.625Z,6.97
2023-05-11T10:05:32.890Z,6.72
2023-05-11T10:08:06.046Z,6.55
2023-05-11T10:10:37.679Z,5.90
2023-05-11T10:13:09.348Z,7.32
2023-05-11T10:15:40.977Z,7.70
2023-05-11T10:18:12.690Z,6.10
2023-05-11T10:20:44.672Z,6.85
2023-05-11T10:23:18.413Z,6.13
2023-05-11T10:25:50.200Z,6.00
2023-05-11T10:28:22.080Z,6.43
2023-05-11T10:30:53.724Z,5.53
2023-05-11T10:33:25.342Z,5.35
2023-05-11T10:35:56.942Z,6.18
2023-05-11T10:38:29.874Z,5.85
2023-05-11T10:41:05.360Z,6.60
2023-05-11T10:43:46.341Z,6.50
2023-05-11T10:46:33.581Z,6.80
2023-05-11T10:49:21.247Z,7.35
2023-05-11T10:52:14.983Z,6.53
2023-05-11T10:54:55.275Z,7.55
2023-05-11T10:57:36.148Z,7.63
2023-05-11T11:00:39.080Z,6.57
2023-05-11T11:03:10.998Z,7.38
2023-05-11T11:05:42.704Z,7.70
2023-05-11T11:08:14.393Z,7.05
2023-05-11T11:10:47.340Z,6.63
2023-05-11T11:13:18.981Z,9.00
2023-05-11T11:16:08.443Z,9.70
2023-05-11T11:18:40.182Z,10.80
2023-05-11T11:21:11.800Z,10.18
2023-05-11T11:23:47.920Z,10.32
2023-05-11T11:26:47.017Z,10.05
2023-05-11T11:29:18.650Z,11.00
2023-05-11T11:31:50.306Z,10.43
2023-05-11T11:34:34.992Z,10.45
2023-05-11T11:37:07.149Z,10.13
2023-05-11T11:39:51.775Z,10.25
2023-05-11T11:42:37.533Z,11.07
2023-05-11T11:45:28.647Z,10.38
2023-05-11T11:48:10.767Z,9.95
2023-05-11T11:50:43.522Z,10.32
2023-05-11T11:53:48.702Z,11.95
2023-05-11T11:56:42.293Z,9.93
2023-05-11T11:59:15.613Z,11.95
2023-05-11T12:01:51.205Z,11.32
2023-05-11T12:04:46.589Z,13.20
2023-05-11T12:07:20.008Z,12.52
2023-05-11T12:09:51.693Z,12.88
2023-05-11T12:12:23.327Z,11.68
2023-05-11T12:14:56.301Z,11.18
2023-05-11T12:17:28.518Z,10.75
2023-05-11T12:20:13.763Z,11.00
2023-05-11T12:22:45.442Z,11.10
2023-05-11T12:25:17.298Z,10.93
2023-05-11T12:27:49.965Z,10.98
2023-05-11T12:30:23.926Z,10.73
2023-05-11T12:32:57.361Z,11.05
2023-05-11T12:35:30.211Z,10.70
2023-05-11T12:38:02.073Z,11.43
2023-05-11T12:40:33.755Z,10.32
2023-05-11T12:43:05.499Z,10.55
2023-05-11T12:45:38.439Z,10.18
2023-05-11T12:48:10.065Z,9.45
2023-05-11T12:50:42.020Z,8.35
2023-05-11T12:53:13.691Z,9.13
2023-05-11T12:55:45.374Z,9.18
2023-05-11T12:58:17.183Z,8.93
2023-05-11T13:00:54.167Z,9.13
2023-05-11T13:03:26.715Z,9.60
2023-05-11T13:06:07.708Z,8.02
2023-05-11T13:08:39.779Z,8.38
2023-05-11T13:11:18.149Z,9.45
2023-05-11T13:13:49.792Z,9.95
2023-05-11T13:16:26.578Z,8.93
2023-05-11T13:18:59.269Z,10.32
2023-05-11T13:21:31.346Z,10.15
2023-05-11T13:24:03.051Z,9.20
2023-05-11T13:26:34.706Z,10.05
2023-05-11T13:29:11.173Z,10.70
2023-05-11T13:31:44.948Z,8.65
2023-05-11T13:34:16.691Z,9.40
2023-05-11T13:36:48.304Z,9.43
2023-05-11T13:39:20.755Z,10.05
2023-05-11T13:41:55.032Z,10.10
2023-05-11T13:44:27.498Z,9.05
2023-05-11T13:47:00.503Z,10.07
2023-05-11T13:49:32.216Z,9.63
2023-05-11T13:52:04.322Z,8.35
2023-05-11T13:54:35.963Z,10.65
2023-05-11T13:57:07.679Z,9.73
2023-05-11T13:59:39.409Z,10.15
2023-05-11T14:02:12.468Z,11.00
2023-05-11T14:04:44.089Z,8.85
2023-05-11T14:07:15.921Z,10.05
2023-05-11T14:09:47.516Z,8.70
2023-05-11T14:12:19.176Z,8.73
2023-05-11T14:14:51.020Z,9.73
2023-05-11T14:17:23.992Z,9.10
2023-05-11T14:19:55.599Z,9.75
2023-05-11T14:22:27.233Z,8.35
2023-05-11T14:24:58.883Z,8.77
2023-05-11T14:27:30.494Z,8.20
2023-05-11T14:30:02.172Z,8.60
2023-05-11T14:32:35.190Z,10.82
2023-05-11T14:35:07.202Z,10.15
2023-05-11T14:37:39.330Z,10.45
2023-05-11T14:40:11.144Z,10.05
2023-05-11T14:42:42.738Z,9.90
2023-05-11T14:45:14.454Z,8.98
2023-05-11T14:47:47.430Z,9.50
2023-05-11T14:50:19.243Z,9.05
2023-05-11T14:52:50.873Z,10.40
2023-05-11T14:55:22.499Z,9.73
2023-05-11T14:57:54.110Z,9.48
2023-05-11T15:00:25.822Z,8.88
2023-05-11T15:02:58.830Z,9.80
2023-05-11T15:05:30.475Z,9.00
2023-05-11T15:08:02.118Z,9.15
2023-05-11T15:10:33.722Z,10.13
2023-05-11T15:13:05.382Z,11.27
2023-05-11T15:15:37.010Z,9.27
2023-05-11T15:18:10.011Z,9.23
2023-05-11T15:20:41.705Z,9.77
2023-05-11T15:23:13.377Z,10.13
2023-05-11T15:25:45.341Z,9.40
2023-05-11T15:28:17.235Z,9.80
2023-05-11T15:30:48.853Z,11.50
2023-05-11T15:33:21.844Z,10.55
2023-05-11T15:35:53.469Z,10.80
2023-05-11T15:38:25.075Z,11.45
2023-05-11T15:40:56.691Z,11.55
2023-05-11T15:43:28.288Z,10.98
2023-05-11T15:45:59.950Z,9.60
2023-05-11T15:48:32.918Z,11.32
2023-05-11T15:51:04.554Z,10.82
2023-05-11T15:53:36.189Z,10.98
2023-05-11T15:56:07.889Z,12.10
2023-05-11T15:58:39.504Z,11.80
2023-05-11T16:01:11.141Z,11.18
2023-05-11T16:03:44.207Z,12.05
2023-05-11T16:06:15.835Z,13.20
2023-05-11T16:08:47.792Z,12.90
2023-05-11T16:11:19.639Z,12.32
2023-05-11T16:13:51.388Z,13.55
2023-05-11T16:16:23.892Z,15.15
2023-05-11T16:18:57.902Z,18.40
2023-05-11T16:21:29.498Z,18.67
2023-05-11T16:24:01.125Z,19.85
2023-05-11T16:26:32.749Z,21.58
2023-05-11T16:29:04.383Z,18.20
2023-05-11T16:31:36.036Z,21.67
2023-05-11T16:34:09.042Z,18.98
2023-05-11T16:36:40.765Z,16.75
2023-05-11T16:39:12.366Z,17.52
2023-05-11T16:41:43.978Z,19.60
2023-05-11T16:44:15.583Z,23.15
2023-05-11T16:46:47.668Z,22.52
2023-05-11T16:49:20.668Z,24.67
2023-05-11T16:51:52.333Z,25.08
2023-05-11T16:54:23.944Z,24.77
2023-05-11T16:56:55.558Z,26.20
2023-05-11T16:59:27.152Z,26.00
2023-05-11T17:01:58.808Z,27.45
2023-05-11T17:04:31.795Z,24.85
2023-05-11T17:07:03.605Z,27.52
2023-05-11T17:09:35.232Z,29.40
2023-05-11T17:12:07.994Z,30.10
2023-05-11T17:14:39.661Z,30.30
2023-05-11T17:17:11.302Z,29.42
2023-05-11T17:19:44.275Z,31.38
2023-05-11T17:22:15.885Z,31.60
2023-05-11T17:24:47.591Z,33.53
2023-05-11T17:27:19.220Z,35.15
2023-05-11T17:29:50.877Z,30.83
2023-05-11T17:32:22.633Z,35.38
2023-05-11T17:34:55.704Z,34.85
2023-05-11T17:37:31.638Z,33.88
2023-05-11T17:40:04.258Z,35.25
2023-05-11T17:42:35.880Z,34.22
2023-05-11T17:45:08.817Z,33.03
2023-05-11T17:47:40.508Z,32.90
2023-05-11T17:50:13.499Z,33.08
2023-05-11T17:52:45.105Z,32.72
2023-05-11T17:55:16.831Z,29.13
2023-05-11T17:57:48.584Z,29.25
2023-05-11T18:00:21.129Z,23.83
2023-05-11T18:02:52.964Z,23.67
2023-05-11T18:05:33.371Z,23.20
2023-05-11T18:08:09.211Z,23.80
2023-05-11T18:10:41.060Z,26.70
2023-05-11T18:13:13.216Z,23.65
2023-05-11T18:15:45.180Z,28.70
2023-05-11T18:18:16.955Z,23.38
2023-05-11T18:20:49.899Z,22.88
2023-05-11T18:23:21.515Z,22.63
2023-05-11T18:25:53.128Z,22.85
2023-05-11T18:28:24.780Z,20.52
2023-05-11T18:30:56.437Z,17.85
2023-05-11T18:33:28.098Z,19.42
2023-05-11T18:36:01.821Z,20.33
2023-05-11T18:38:33.429Z,24.40
2023-05-11T18:41:05.184Z,20.95
2023-05-11T18:43:36.814Z,21.17
2023-05-11T18:46:08.431Z,19.63
2023-05-11T18:48:40.152Z,17.17
2023-05-11T18:51:13.110Z,16.42
2023-05-11T18:53:44.752Z,16.38
2023-05-11T18:56:16.413Z,14.63
2023-05-11T18:58:48.039Z,14.13
2023-05-11T19:01:19.693Z,13.88
2023-05-11T19:03:51.391Z,13.20
2023-05-11T19:06:24.329Z,13.77
2023-05-11T19:08:55.938Z,13.25
2023-05-11T19:11:27.545Z,14.10
2023-05-11T19:13:59.166Z,14.05
2023-05-11T19:16:30.859Z,15.35
2023-05-11T19:19:02.531Z,15.60
2023-05-11T19:21:35.612Z,16.30
2023-05-11T19:24:07.810Z,15.77
2023-05-11T19:26:39.498Z,18.27
2023-05-11T19:29:11.185Z,18.00
2023-05-11T19:31:42.908Z,18.75
2023-05-11T19:34:14.610Z,20.35
2023-05-11T19:36:47.650Z,21.17
2023-05-11T19:39:19.320Z,23.08
2023-05-11T19:41:50.994Z,24.33
2023-05-11T19:44:22.650Z,21.65
2023-05-11T19:46:54.327Z,25.15
2023-05-11T19:49:26.088Z,26.35
2023-05-11T19:51:59.098Z,24.40
2023-05-11T19:54:30.814Z,23.45
2023-05-11T19:57:02.499Z,23.35
2023-05-11T19:59:34.165Z,24.60
2023-05-11T20:02:05.916Z,25.30
2023-05-11T20:04:37.671Z,26.55
2023-05-11T20:07:10.843Z,24.00
2023-05-11T20:09:42.495Z,22.58
2023-05-11T20:12:14.175Z,23.73
2023-05-11T20:14:45.824Z,22.33
2023-05-11T20:17:17.503Z,22.30
2023-05-11T20:19:49.171Z,23.00
2023-05-11T20:22:22.213Z,23.27
2023-05-11T20:24:53.858Z,22.95
2023-05-11T20:27:25.564Z,22.50
2023-05-11T20:29:57.269Z,22.27
2023-05-11T20:32:28.950Z,22.98
2023-05-11T20:35:00.626Z,21.85
2023-05-11T20:37:33.669Z,22.23
2023-05-11T20:40:06.501Z,22.73
2023-05-11T20:42:38.182Z,22.23
2023-05-11T20:45:10.331Z,23.52
2023-05-11T20:47:42.026Z,23.02
2023-05-11T20:50:14.208Z,21.95
2023-05-11T20:52:47.231Z,21.65
2023-05-11T20:55:19.297Z,21.35
2023-05-11T20:57:51.165Z,22.45
2023-05-11T21:00:23.531Z,22.90
2023-05-11T21:02:55.422Z,24.00
2023-05-11T21:05:27.169Z,22.25
2023-05-11T21:08:00.167Z,21.92
2023-05-11T21:10:31.869Z,24.23
2023-05-11T21:13:03.550Z,23.10
2023-05-11T21:15:35.222Z,23.90
2023-05-11T21:18:06.960Z,22.20
2023-05-11T21:20:38.669Z,22.60
2023-05-11T21:23:11.694Z,23.25
2023-05-11T21:25:43.386Z,23.55
2023-05-11T21:28:15.054Z,25.23
2023-05-11T21:30:46.762Z,24.35
2023-05-11T21:33:18.617Z,23.27
2023-05-11T21:35:50.269Z,24.40
2023-05-11T21:38:23.327Z,24.38
2023-05-11T21:40:55.321Z,24.52
2023-05-11T21:43:27.075Z,23.15
2023-05-11T21:45:58.815Z,23.85
2023-05-11T21:48:30.540Z,24.52
2023-05-11T21:51:02.219Z,25.20
2023-05-11T21:53:35.228Z,24.73
2023-05-11T21:56:07.130Z,24.38
2023-05-11T21:58:38.789Z,25.63
